Time;durP1;ratioP1;P1;durP2;ratioP2;P2;SDS_P1;SDS_P2;PMS_P1;PMS_P2;Temp;Humidity;BMP_temperature;BMP_pressure;BME280_temperature;BME280_humidity;BME280_pressure;Samples;Min_cycle;Max_cycle;Signal;HPM_P1;HPM_P2
2021/12/26 00:03:30;;;;;;;6.00;2.47;;;;;;;-4.98;93.68;101275.19;10378796;28;20053;-64
2021/12/26 00:08:53;;;;;;;4.25;2.38;;;;;;;-5.00;93.55;101270.94;10384997;28;20140;-65
2021/12/26 00:14:15;;;;;;;7.53;2.40;;;;;;;-5.06;94.15;101271.75;10354804;28;20392;-64
2021/12/26 00:19:37;;;;;;;5.57;2.85;;;;;;;-5.24;93.12;101275.91;10401675;28;20128;-64
2021/12/26 00:25:00;;;;;;;10.70;3.28;;;;;;;-5.08;94.34;101282.75;10386935;28;20045;-65
2021/12/26 00:30:22;;;;;;;6.25;3.30;;;;;;;-5.26;92.96;101277.59;10433292;28;20049;-65
2021/12/26 00:35:44;;;;;;;4.43;2.78;;;;;;;-5.24;93.33;101286.91;10436810;28;20382;-64
2021/12/26 00:41:05;;;;;;;8.65;3.20;;;;;;;-5.31;92.54;101271.63;10362140;28;20136;-64
2021/12/26 00:46:27;;;;;;;6.25;3.20;;;;;;;-5.17;94.20;101267.47;10341604;28;20053;-64
2021/12/26 00:51:50;;;;;;;4.95;2.53;;;;;;;-5.19;94.71;101259.84;10355668;28;20042;-64
2021/12/26 00:57:12;;;;;;;6.28;2.95;;;;;;;-5.17;94.27;101258.16;10358894;28;20414;-65
2021/12/26 01:02:34;;;;;;;9.07;2.95;;;;;;;-5.18;93.86;101246.31;10357725;28;20477;-64
2021/12/26 01:08:00;;;;;;;5.22;2.58;;;;;;;-5.18;92.78;101237.81;10354321;28;20480;-64
2021/12/26 01:13:29;;;;;;;12.05;3.10;;;;;;;-5.27;93.23;101235.25;10354424;28;20128;-64
2021/12/26 01:18:55;;;;;;;5.72;2.55;;;;;;;-5.24;92.50;101233.56;10399791;28;20077;-64
2021/12/26 01:24:17;;;;;;;6.47;2.97;;;;;;;-5.30;92.10;101237.75;10409408;28;20046;-64
2021/12/26 01:29:39;;;;;;;6.53;3.15;;;;;;;-5.38;91.58;101239.41;10407206;28;20156;-64
2021/12/26 01:35:00;;;;;;;6.25;2.85;;;;;;;-5.52;91.95;101241.00;10360966;28;20060;-64
2021/12/26 01:40:22;;;;;;;6.90;3.10;;;;;;;-5.40;93.41;101241.09;10346381;28;20065;-65
2021/12/26 01:45:45;;;;;;;7.05;2.85;;;;;;;-5.39;93.04;101236.03;10427500;28;20049;-64
2021/12/26 01:51:08;;;;;;;7.03;2.80;;;;;;;-5.54;92.81;101240.19;10386785;28;20050;-64
2021/12/26 01:56:30;;;;;;;4.28;2.78;;;;;;;-5.58;93.00;101239.28;10375140;28;20060;-64
2021/12/26 02:01:55;;;;;;;6.22;2.70;;;;;;;-5.54;93.64;101240.19;10419130;28;20049;-65
2021/12/26 02:07:17;;;;;;;6.43;3.17;;;;;;;-5.53;93.87;101226.66;10388278;28;20413;-64
2021/12/26 02:12:39;;;;;;;4.35;2.80;;;;;;;-5.58;93.33;101218.97;10346166;28;20052;-64
2021/12/26 02:18:01;;;;;;;8.55;3.08;;;;;;;-5.74;92.08;101216.34;10379721;28;20393;-64
2021/12/26 02:23:30;;;;;;;5.63;3.13;;;;;;;-5.54;94.02;101213.09;10398156;28;20042;-64
2021/12/26 02:28:52;;;;;;;8.95;3.10;;;;;;;-5.74;92.46;101211.25;10395161;28;20045;-64
2021/12/26 02:34:13;;;;;;;6.38;3.13;;;;;;;-5.75;93.37;101209.56;10414359;28;20053;-65
2021/12/26 02:39:36;;;;;;;6.65;3.65;;;;;;;-5.81;93.29;101207.00;10397421;28;20041;-64
2021/12/26 02:44:58;;;;;;;9.95;3.63;;;;;;;-5.91;93.04;101212.88;10371879;28;20062;-64
2021/12/26 02:50:29;;;;;;;7.65;3.97;;;;;;;-5.76;94.74;101207.88;10373666;28;20049;-64
2021/12/26 02:55:53;;;;;;;9.55;4.03;;;;;;;-5.87;93.19;101194.28;10439901;28;20528;-64
2021/12/26 03:01:19;;;;;;;8.45;4.15;;;;;;;-5.84;94.45;101191.78;10363899;28;20050;-65
2021/12/26 03:06:52;;;;;;;10.52;4.10;;;;;;;-5.87;93.47;101183.28;10412657;28;20045;-65
2021/12/26 03:12:14;;;;;;;9.68;4.18;;;;;;;-5.86;94.10;101173.16;10398166;28;20076;-65
2021/12/26 03:17:38;;;;;;;8.68;4.07;;;;;;;-5.92;93.88;101187.50;10372604;28;20064;-64
2021/12/26 03:23:01;;;;;;;6.80;4.10;;;;;;;-5.94;93.79;101182.41;10422373;28;20045;-64
2021/12/26 03:28:25;;;;;;;7.97;4.18;;;;;;;-5.89;93.93;101179.91;10428519;28;20166;-64
2021/12/26 03:33:47;;;;;;;6.05;3.67;;;;;;;-5.97;93.85;101177.31;10438311;28;20057;-64
2021/12/26 03:39:09;;;;;;;7.93;4.10;;;;;;;-5.86;93.88;101180.78;10391466;28;20045;-64
2021/12/26 03:44:30;;;;;;;7.45;4.32;;;;;;;-6.04;92.94;101190.78;10409848;28;20050;-64
2021/12/26 03:49:53;;;;;;;10.75;4.57;;;;;;;-5.97;93.71;101182.41;10416586;28;20136;-65
2021/12/26 03:55:15;;;;;;;6.68;3.85;;;;;;;-6.05;93.05;101176.41;10407242;28;20511;-65
2021/12/26 04:00:38;;;;;;;9.23;4.32;;;;;;;-6.08;93.82;101183.97;10434216;28;20465;-64
2021/12/26 04:06:00;;;;;;;11.43;4.30;;;;;;;-6.09;92.55;101187.34;10437628;28;20045;-64
2021/12/26 04:11:22;;;;;;;9.32;4.13;;;;;;;-6.27;92.58;101177.09;10374708;28;20050;-64
2021/12/26 04:16:44;;;;;;;8.90;4.07;;;;;;;-6.13;93.59;101175.50;10407708;28;20054;-65
2021/12/26 04:22:08;;;;;;;10.18;4.78;;;;;;;-6.24;92.97;101177.09;10354624;28;20054;-65
2021/12/26 04:27:29;;;;;;;8.50;3.80;;;;;;;-6.18;92.73;101182.22;10375322;28;20061;-65
2021/12/26 04:32:51;;;;;;;9.90;4.03;;;;;;;-6.14;92.93;101178.88;10436851;28;20053;-65
2021/12/26 04:38:13;;;;;;;7.63;3.92;;;;;;;-6.16;93.27;101175.47;10352032;28;20054;-64
2021/12/26 04:43:35;;;;;;;10.88;4.70;;;;;;;-6.26;92.91;101173.69;10341072;28;20042;-64
2021/12/26 04:48:57;;;;;;;9.45;4.03;;;;;;;-6.31;93.19;101165.22;10369436;28;20053;-64
2021/12/26 04:54:19;;;;;;;6.55;3.53;;;;;;;-6.27;93.30;101166.94;10403188;28;20049;-65
2021/12/26 04:59:40;;;;;;;6.90;3.67;;;;;;;-6.21;94.04;101177.13;10407257;28;20041;-65
2021/12/26 05:05:07;;;;;;;10.57;3.95;;;;;;;-6.34;92.70;101170.25;10370920;28;20098;-64
2021/12/26 05:10:29;;;;;;;9.98;3.55;;;;;;;-6.31;93.29;101167.75;10362418;28;20056;-65
2021/12/26 05:15:51;;;;;;;6.00;3.28;;;;;;;-6.34;92.93;101167.72;10348596;28;20506;-64
2021/12/26 05:21:13;;;;;;;8.77;3.90;;;;;;;-6.29;92.90;101166.09;10361914;28;20046;-64
2021/12/26 05:26:35;;;;;;;6.72;3.13;;;;;;;-6.44;91.48;101167.63;10379501;28;20045;-64
2021/12/26 05:31:56;;;;;;;8.48;3.58;;;;;;;-6.59;91.65;101160.75;10453638;28;20554;-65
2021/12/26 05:37:18;;;;;;;6.53;3.22;;;;;;;-6.50;91.49;101167.59;10402614;28;20053;-64
2021/12/26 05:42:41;;;;;;;4.90;3.22;;;;;;;-6.44;91.58;101163.41;10364319;28;20045;-65
2021/12/26 05:48:04;;;;;;;6.78;3.10;;;;;;;-6.34;91.18;101154.22;10365769;28;20061;-64
2021/12/26 05:53:25;;;;;;;6.53;3.10;;;;;;;-6.39;90.38;101151.63;10395280;28;20084;-65
2021/12/26 05:58:50;;;;;;;8.77;3.95;;;;;;;-6.60;90.13;101141.31;10395268;28;20048;-64
2021/12/26 06:04:14;;;;;;;5.28;3.20;;;;;;;-6.45;90.01;101141.44;10360761;28;20593;-65
2021/12/26 06:09:37;;;;;;;9.45;3.28;;;;;;;-6.63;88.84;101134.50;10349139;28;20057;-64
2021/12/26 06:14:58;;;;;;;5.55;2.92;;;;;;;-6.56;89.06;101137.13;10387021;28;20057;-65
2021/12/26 06:20:20;;;;;;;8.23;3.28;;;;;;;-6.55;88.07;101138.81;10358902;28;20522;-65
2021/12/26 06:25:42;;;;;;;10.13;3.53;;;;;;;-6.55;89.33;101134.56;10376213;28;20045;-64
2021/12/26 06:31:03;;;;;;;7.28;3.20;;;;;;;-6.63;87.58;101131.97;10440339;28;20059;-64
2021/12/26 06:36:27;;;;;;;9.43;3.70;;;;;;;-6.54;88.01;101121.06;10402306;28;20057;-65
2021/12/26 06:41:49;;;;;;;5.57;3.28;;;;;;;-6.64;86.32;101122.69;10388551;28;20049;-65
2021/12/26 06:47:11;;;;;;;7.85;3.70;;;;;;;-6.49;88.94;101109.31;10376567;28;20437;-65
2021/12/26 06:52:33;;;;;;;10.30;4.00;;;;;;;-6.45;86.84;101113.56;10440017;28;20045;-65
2021/12/26 06:57:54;;;;;;;7.50;3.53;;;;;;;-6.49;86.94;101109.31;10344755;28;20073;-65
2021/12/26 07:03:16;;;;;;;9.18;3.90;;;;;;;-6.45;85.52;101105.97;10398246;28;20051;-65
2021/12/26 07:08:37;;;;;;;5.90;3.33;;;;;;;-6.50;85.59;101097.47;10368691;28;20720;-65
2021/12/26 07:13:59;;;;;;;9.80;3.05;;;;;;;-6.39;86.00;101098.38;10367327;28;20057;-65
2021/12/26 07:19:20;;;;;;;7.60;3.47;;;;;;;-6.49;83.64;101098.34;10347564;28;20053;-65
2021/12/26 07:24:44;;;;;;;8.77;3.75;;;;;;;-6.41;81.95;101102.63;10395307;28;20052;-65
2021/12/26 07:30:06;;;;;;;7.05;3.42;;;;;;;-6.36;84.07;101098.41;10411555;28;20052;-65
2021/12/26 07:35:28;;;;;;;6.32;3.30;;;;;;;-6.49;82.70;101098.34;10425821;28;20061;-66
2021/12/26 07:40:50;;;;;;;5.63;3.08;;;;;;;-6.36;83.95;101090.81;10342955;28;20393;-66
2021/12/26 07:46:11;;;;;;;6.88;3.13;;;;;;;-6.27;84.21;101095.97;10358739;28;20058;-65
2021/12/26 07:51:33;;;;;;;6.47;3.45;;;;;;;-6.38;82.74;101092.47;10400422;28;20049;-66
2021/12/26 07:56:57;;;;;;;6.78;3.35;;;;;;;-6.29;82.04;101092.56;10432469;28;20052;-66
2021/12/26 08:02:20;;;;;;;4.20;2.83;;;;;;;-6.44;80.45;101105.13;10385973;28;20516;-66
2021/12/26 08:07:42;;;;;;;7.10;3.40;;;;;;;-6.36;81.20;101100.94;10385025;28;20072;-65
2021/12/26 08:13:03;;;;;;;6.25;3.33;;;;;;;-6.24;82.85;101095.97;10351637;28;20045;-65
2021/12/26 08:18:25;;;;;;;7.68;3.55;;;;;;;-6.14;81.36;101112.94;10364015;28;20060;-65
2021/12/26 08:23:47;;;;;;;7.60;3.00;;;;;;;-6.18;81.77;101116.28;10350954;28;20530;-65
2021/12/26 08:29:08;;;;;;;4.32;3.10;;;;;;;-6.15;80.76;101111.25;10405129;28;20176;-65
2021/12/26 08:34:30;;;;;;;7.85;2.90;;;;;;;-6.04;80.83;101109.63;10396335;28;20060;-65
2021/12/26 08:39:54;;;;;;;6.63;3.28;;;;;;;-6.03;80.62;101106.25;10344094;28;20050;-65
2021/12/26 08:45:17;;;;;;;6.53;3.25;;;;;;;-5.91;81.39;101108.03;10343262;28;20054;-65
2021/12/26 08:50:39;;;;;;;6.25;3.05;;;;;;;-5.86;79.49;101114.81;10395823;28;20061;-65
2021/12/26 08:56:02;;;;;;;7.28;3.20;;;;;;;-5.83;79.23;101109.75;10368673;28;20053;-66
2021/12/26 09:01:24;;;;;;;4.80;2.90;;;;;;;-5.74;78.82;101119.91;10392608;28;20572;-65
2021/12/26 09:06:46;;;;;;;6.55;3.38;;;;;;;-5.77;77.74;101129.25;10437861;28;20580;-66
2021/12/26 09:12:10;;;;;;;8.30;3.30;;;;;;;-5.72;77.57;101130.06;10345374;28;20046;-65
2021/12/26 09:17:37;;;;;;;6.47;3.20;;;;;;;-5.55;79.25;101119.16;10354568;28;20150;-66
2021/12/26 09:22:59;;;;;;;6.03;2.72;;;;;;;-5.48;79.62;101115.78;10396979;28;20068;-65
2021/12/26 09:28:20;;;;;;;4.15;2.80;;;;;;;-5.41;77.25;101110.75;10393658;28;20052;-65
2021/12/26 09:33:42;;;;;;;10.57;3.20;;;;;;;-5.33;80.30;101108.25;10437544;28;20049;-65
2021/12/26 09:39:05;;;;;;;4.03;2.78;;;;;;;-5.27;79.16;101106.56;10354959;28;20058;-65
2021/12/26 09:44:27;;;;;;;6.68;2.90;;;;;;;-5.14;77.43;101104.91;10340600;28;20038;-65
2021/12/26 09:49:49;;;;;;;6.45;2.88;;;;;;;-5.16;79.23;101098.97;10376484;28;20060;-65
2021/12/26 09:55:12;;;;;;;4.82;2.83;;;;;;;-5.06;79.80;101103.22;10395049;28;20445;-65
2021/12/26 10:00:37;;;;;;;7.30;3.05;;;;;;;-5.03;77.36;101098.16;10381779;28;20045;-65
2021/12/26 10:06:10;;;;;;;;;;;;;;;-4.92;78.47;101104.97;10366348;28;20053;-65
2021/12/26 10:11:35;;;;;;;5.20;3.00;;;;;;;-4.83;78.35;101101.59;10353985;28;19925;-65
2021/12/26 10:16:58;;;;;;;4.55;2.63;;;;;;;-4.88;76.79;101100.72;10353925;28;20058;-65
2021/12/26 10:22:28;;;;;;;4.47;2.78;;;;;;;-4.53;78.52;101088.06;10352127;28;20053;-65
2021/12/26 10:27:50;;;;;;;7.63;3.00;;;;;;;-4.50;76.17;101074.50;10380253;28;20119;-65
2021/12/26 10:33:11;;;;;;;4.80;2.83;;;;;;;-4.36;75.81;101076.16;10399443;28;20048;-64
2021/12/26 10:38:33;;;;;;;6.95;3.10;;;;;;;-4.44;75.39;101059.25;10352885;28;20058;-65
2021/12/26 10:43:55;;;;;;;5.45;2.65;;;;;;;-4.14;75.36;101057.50;10351807;28;20045;-65
2021/12/26 10:49:28;;;;;;;4.97;3.10;;;;;;;-4.26;74.76;101051.56;10372034;28;20056;-65
2021/12/26 10:54:53;;;;;;;4.55;2.80;;;;;;;-4.13;74.88;101049.00;10373375;28;20065;-65
2021/12/26 11:00:14;;;;;;;7.67;3.10;;;;;;;-4.01;75.03;101043.88;10390414;28;20045;-65
2021/12/26 11:05:38;;;;;;;3.67;2.38;;;;;;;-3.82;74.50;101030.25;10354893;28;20425;-65
2021/12/26 11:11:20;;;;;;;5.57;2.92;;;;;;;-3.68;72.80;101028.50;10388379;28;20057;-64
2021/12/26 11:16:41;;;;;;;7.10;2.92;;;;;;;-3.72;73.69;101011.53;10365677;28;20077;-65
2021/12/26 11:22:03;;;;;;;5.82;2.95;;;;;;;-3.59;73.72;101002.97;10363602;28;20101;-65
2021/12/26 11:27:25;;;;;;;3.83;2.42;;;;;;;-3.49;74.77;101005.47;10368553;28;20053;-66
2021/12/26 11:32:48;;;;;;;4.55;2.85;;;;;;;-3.43;72.21;100999.50;10356673;28;20068;-65
2021/12/26 11:38:15;;;;;;;5.80;2.92;;;;;;;-3.22;70.00;100994.28;10392225;28;20132;-65
2021/12/26 11:44:08;;;;;;;4.32;2.45;;;;;;;-3.23;71.89;100993.41;10363364;28;20069;-64
2021/12/26 11:50:04;;;;;;;7.38;2.42;;;;;;;-3.16;70.82;100989.13;10380393;28;20048;-65
2021/12/26 11:55:49;;;;;;;8.23;2.80;;;;;;;-2.94;69.80;100985.56;10380468;28;20137;-64
2021/12/26 12:01:19;;;;;;;6.07;2.80;;;;;;;-3.05;70.83;100984.78;10357963;28;20719;-65
2021/12/26 12:06:41;;;;;;;5.57;2.70;;;;;;;-2.92;70.14;100973.66;10325623;28;20623;-64
2021/12/26 12:12:05;;;;;;;5.55;2.65;;;;;;;-2.93;70.65;100951.56;10350116;28;20506;-65
2021/12/26 12:17:29;;;;;;;5.07;2.80;;;;;;;-2.74;68.58;100947.13;10370502;28;20045;-65
2021/12/26 12:23:09;;;;;;;6.43;3.20;;;;;;;-2.77;69.53;100944.63;10355469;28;20057;-65
2021/12/26 12:28:40;;;;;;;4.40;2.65;;;;;;;-2.61;69.31;100940.22;10364661;28;20056;-65
2021/12/26 12:34:06;;;;;;;5.15;2.83;;;;;;;-2.49;68.34;100925.63;10366810;28;20498;-65
2021/12/26 12:39:30;;;;;;;5.75;2.92;;;;;;;-2.52;69.07;100920.56;10351337;28;20065;-65
2021/12/26 12:44:58;;;;;;;7.88;2.67;;;;;;;-2.29;65.41;100921.13;10353986;28;20041;-65
2021/12/26 12:50:31;;;;;;;5.03;2.67;;;;;;;-2.25;66.09;100920.25;10402964;28;20391;-66
2021/12/26 12:55:53;;;;;;;3.97;2.83;;;;;;;-2.13;65.04;100920.09;10372517;28;20056;-65
2021/12/26 13:01:37;;;;;;;5.90;2.38;;;;;;;-2.21;65.77;100921.91;10364031;28;20410;-65
2021/12/26 13:07:02;;;;;;;6.07;2.60;;;;;;;-2.03;64.57;100921.66;10350484;28;20599;-67
2021/12/26 13:12:25;;;;;;;3.97;2.25;;;;;;;-2.04;63.91;100920.00;10367153;28;20297;-66
2021/12/26 13:17:47;;;;;;;5.05;2.42;;;;;;;-1.90;61.90;100908.72;10369663;28;20510;-65
2021/12/26 13:23:08;;;;;;;4.80;2.80;;;;;;;-1.95;63.83;100904.53;10363698;28;20288;-66
2021/12/26 13:28:32;;;;;;;5.47;2.55;;;;;;;-2.13;66.50;100899.66;10369248;28;20054;-65
2021/12/26 13:33:57;;;;;;;5.43;2.38;;;;;;;-1.93;64.98;100897.72;10370209;28;20493;-65
2021/12/26 13:39:25;;;;;;;4.68;2.50;;;;;;;-1.91;66.06;100893.44;10371184;28;20053;-64
2021/12/26 13:44:46;;;;;;;7.20;3.05;;;;;;;-1.93;67.30;100881.53;10398345;28;20049;-66
2021/12/26 13:50:14;;;;;;;8.38;3.10;;;;;;;-1.89;66.59;100876.34;10350299;28;20060;-65
2021/12/26 13:55:39;;;;;;;4.07;2.53;;;;;;;-1.91;67.36;100867.91;10361752;28;20052;-66
2021/12/26 14:01:00;;;;;;;4.63;3.00;;;;;;;-1.85;66.80;100862.69;10354842;28;20046;-66
2021/12/26 14:06:28;;;;;;;7.05;3.15;;;;;;;-1.81;67.01;100849.84;10358998;28;20699;-66
2021/12/26 14:11:50;;;;;;;8.73;3.20;;;;;;;-1.83;66.97;100845.63;10357154;28;20069;-66
2021/12/26 14:17:12;;;;;;;6.28;3.15;;;;;;;-1.94;69.57;100846.66;10354539;28;20049;-66
2021/12/26 14:22:33;;;;;;;5.60;3.40;;;;;;;-1.86;68.54;100845.69;10342300;28;20409;-66
2021/12/26 14:27:55;;;;;;;5.15;3.20;;;;;;;-1.86;68.61;100838.88;10389713;28;20045;-66
2021/12/26 14:33:17;;;;;;;7.93;4.00;;;;;;;-1.82;68.46;100849.88;10393667;28;20049;-66
2021/12/26 14:38:49;;;;;;;6.60;3.47;;;;;;;-1.93;70.04;100846.66;10402745;28;20049;-66
2021/12/26 14:44:19;;;;;;;8.68;3.63;;;;;;;-2.04;72.25;100853.63;10368383;28;20050;-66
2021/12/26 14:49:49;;;;;;;7.85;3.45;;;;;;;-1.93;70.07;100850.88;10399937;28;20064;-66
2021/12/26 14:55:18;;;;;;;10.10;3.65;;;;;;;-2.01;71.02;100848.44;10435113;28;20057;-66
2021/12/26 15:00:45;;;;;;;8.95;4.10;;;;;;;-2.04;71.43;100851.06;10392867;28;20049;-66
2021/12/26 15:06:11;;;;;;;7.68;3.70;;;;;;;-2.07;73.67;100838.34;10392919;28;20049;-66
2021/12/26 15:11:39;;;;;;;6.75;4.10;;;;;;;-2.21;73.31;100830.03;10370506;28;20064;-66
2021/12/26 15:17:12;;;;;;;8.73;3.85;;;;;;;-2.12;73.47;100836.72;10397913;28;20086;-65
2021/12/26 15:22:37;;;;;;;7.32;3.65;;;;;;;-2.16;74.47;100838.44;10352290;28;20514;-66
2021/12/26 15:28:04;;;;;;;6.77;4.13;;;;;;;-2.27;75.40;100840.31;10369819;28;20052;-65
2021/12/26 15:33:44;;;;;;;9.75;3.85;;;;;;;-2.25;74.39;100836.03;10410007;28;20783;-65
2021/12/26 15:39:11;;;;;;;8.82;3.90;;;;;;;-2.34;74.37;100817.44;10370547;28;20084;-66
2021/12/26 15:44:37;;;;;;;7.88;3.35;;;;;;;-2.33;75.48;100814.84;10356095;28;20114;-66
2021/12/26 15:49:58;;;;;;;6.05;3.78;;;;;;;-2.32;76.20;100813.97;10414998;28;20059;-66
2021/12/26 15:55:20;;;;;;;8.75;3.90;;;;;;;-2.35;76.00;100811.50;10454153;28;20071;-65
2021/12/26 16:00:41;;;;;;;7.28;3.97;;;;;;;-2.35;74.92;100811.50;10358086;28;20056;-65
2021/12/26 16:06:03;;;;;;;6.07;3.60;;;;;;;-2.33;73.98;100803.81;10393957;28;20053;-64
2021/12/26 16:11:25;;;;;;;8.90;4.35;;;;;;;-2.37;73.62;100795.38;10363684;28;20053;-64
2021/12/26 16:16:46;;;;;;;9.57;4.78;;;;;;;-2.38;74.25;100801.31;10339148;28;20092;-66
2021/12/26 16:22:08;;;;;;;7.30;4.38;;;;;;;-2.43;74.84;100797.97;10385683;28;20054;-66
2021/12/26 16:27:30;;;;;;;8.00;4.07;;;;;;;-2.47;75.10;100796.31;10363766;28;20064;-64
2021/12/26 16:32:52;;;;;;;9.30;3.88;;;;;;;-2.35;72.78;100790.22;10355921;28;20048;-64
2021/12/26 16:38:15;;;;;;;10.43;3.95;;;;;;;-2.45;74.82;100799.69;10356628;28;20060;-64
2021/12/26 16:43:37;;;;;;;8.52;3.95;;;;;;;-2.45;73.32;100792.03;10370515;28;20521;-64
2021/12/26 16:48:59;;;;;;;5.72;3.58;;;;;;;-2.46;74.30;100787.81;10369896;28;20087;-64
2021/12/26 16:54:25;;;;;;;7.53;3.80;;;;;;;-2.49;72.26;100792.97;10393315;28;20049;-65
2021/12/26 16:59:47;;;;;;;;;;;;;;;-2.42;72.03;100794.56;10373611;28;20093;-64
2021/12/26 17:05:09;;;;;;;7.50;3.90;;;;;;;-2.51;72.00;100779.41;10365402;28;19929;-64
2021/12/26 17:10:31;;;;;;;7.32;3.83;;;;;;;-2.51;73.18;100788.72;10363371;28;20057;-64
2021/12/26 17:15:53;;;;;;;7.38;3.90;;;;;;;-2.46;71.86;100771.66;10378016;28;20391;-64
2021/12/26 17:21:14;;;;;;;10.10;4.00;;;;;;;-2.53;71.99;100770.03;10355560;28;20053;-64
2021/12/26 17:26:36;;;;;;;8.43;4.03;;;;;;;-2.48;71.43;100773.41;10376288;28;20049;-65
2021/12/26 17:31:58;;;;;;;8.27;4.32;;;;;;;-2.56;71.72;100776.03;10393264;28;20424;-65
2021/12/26 17:37:20;;;;;;;8.70;4.32;;;;;;;-2.58;73.81;100764.19;10366737;28;20038;-64
2021/12/26 17:42:42;;;;;;;6.93;3.80;;;;;;;-2.62;75.36;100771.00;10369246;28;20048;-64
2021/12/26 17:48:04;;;;;;;9.40;4.63;;;;;;;-2.56;74.78;100770.94;10399915;28;20464;-65
2021/12/26 17:53:26;;;;;;;8.15;4.18;;;;;;;-2.66;73.43;100763.41;10407723;28;20045;-65
2021/12/26 17:58:49;;;;;;;10.07;4.13;;;;;;;-2.70;73.78;100752.41;10372038;28;20049;-65
2021/12/26 18:04:11;;;;;;;9.00;4.80;;;;;;;-2.73;73.33;100754.19;10422254;28;20049;-65
2021/12/26 18:09:33;;;;;;;9.70;4.63;;;;;;;-2.70;74.09;100742.22;10401223;28;20064;-66
2021/12/26 18:14:54;;;;;;;8.10;4.40;;;;;;;-2.76;75.03;100747.38;10343068;28;20049;-66
2021/12/26 18:20:21;;;;;;;8.48;4.38;;;;;;;-2.76;74.55;100751.66;10359467;28;20407;-65
2021/12/26 18:25:44;;;;;;;6.45;4.03;;;;;;;-2.86;75.57;100740.72;10353355;28;20042;-66
2021/12/26 18:31:06;;;;;;;11.35;4.38;;;;;;;-2.82;74.81;100737.28;10410209;28;20401;-64
2021/12/26 18:36:32;;;;;;;7.82;4.13;;;;;;;-2.77;75.23;100745.72;10395877;28;20111;-64
2021/12/26 18:41:54;;;;;;;10.27;4.43;;;;;;;-2.73;74.81;100752.44;10373338;28;20072;-65
2021/12/26 18:47:16;;;;;;;10.45;5.07;;;;;;;-2.73;75.81;100752.44;10376418;28;20050;-64
2021/12/26 18:52:41;;;;;;;10.32;4.57;;;;;;;-2.66;74.41;100754.09;10375230;28;20494;-65
2021/12/26 18:58:07;;;;;;;10.60;4.80;;;;;;;-2.68;74.18;100740.50;10367021;28;20054;-65
2021/12/26 19:03:35;;;;;;;11.48;5.43;;;;;;;-2.61;74.08;100739.53;10383729;28;20406;-65
2021/12/26 19:08:56;;;;;;;10.63;5.07;;;;;;;-2.63;74.42;100723.44;10374717;28;20045;-64
2021/12/26 19:14:18;;;;;;;11.05;5.05;;;;;;;-2.64;74.35;100709.00;10372493;28;20081;-66
2021/12/26 19:19:41;;;;;;;10.70;4.60;;;;;;;-2.56;73.99;100719.94;10369459;28;20049;-66
2021/12/26 19:25:03;;;;;;;11.98;5.20;;;;;;;-2.58;73.85;100723.38;10375436;28;20502;-65
2021/12/26 19:30:26;;;;;;;12.02;5.05;;;;;;;-2.53;75.58;100713.94;10382577;28;20053;-65
2021/12/26 19:35:52;;;;;;;8.00;4.20;;;;;;;-2.51;74.98;100702.88;10360648;28;20056;-65
2021/12/26 19:41:16;;;;;;;9.75;5.03;;;;;;;-2.51;75.48;100702.00;10386094;28;20052;-64
2021/12/26 19:46:39;;;;;;;9.35;4.65;;;;;;;-2.50;75.03;100704.56;10356910;28;20068;-65
2021/12/26 19:52:01;;;;;;;8.68;4.65;;;;;;;-2.51;75.28;100702.00;10389623;28;20213;-65
2021/12/26 19:57:26;;;;;;;10.60;4.80;;;;;;;-2.57;74.77;100702.09;10396353;28;20114;-64
2021/12/26 20:02:48;;;;;;;11.68;4.85;;;;;;;-2.55;74.61;100690.19;10386801;28;20046;-65
2021/12/26 20:08:10;;;;;;;12.23;5.35;;;;;;;-2.55;74.52;100690.19;10355155;28;20050;-65
2021/12/26 20:13:34;;;;;;;12.95;5.30;;;;;;;-2.54;75.28;100697.81;10355485;28;20050;-64
2021/12/26 20:18:55;;;;;;;10.85;5.18;;;;;;;-2.57;76.28;100691.91;10356348;28;20144;-64
2021/12/26 20:24:19;;;;;;;8.50;4.53;;;;;;;-2.57;75.20;100697.00;10341173;28;20495;-65
2021/12/26 20:29:41;;;;;;;11.63;5.05;;;;;;;-2.53;76.20;100686.72;10419513;28;20056;-64
2021/12/26 20:35:03;;;;;;;11.45;5.10;;;;;;;-2.60;76.81;100681.75;10423203;28;20057;-66
2021/12/26 20:40:24;;;;;;;9.23;4.25;;;;;;;-2.60;77.27;100672.38;10356356;28;20049;-65
2021/12/26 20:45:49;;;;;;;9.30;4.78;;;;;;;-2.57;77.80;100666.41;10328087;28;20096;-65
2021/12/26 20:51:11;;;;;;;10.27;5.63;;;;;;;-2.55;77.13;100660.41;10397916;28;20053;-65
2021/12/26 20:56:33;;;;;;;8.82;5.20;;;;;;;-2.58;77.16;100670.63;10369589;28;20050;-66
2021/12/26 21:01:57;;;;;;;10.98;5.20;;;;;;;-2.48;78.36;100662.00;10392497;28;20045;-63
2021/12/26 21:07:22;;;;;;;10.95;5.25;;;;;;;-2.50;78.35;100658.63;10382589;28;20053;-64
2021/12/26 21:12:48;;;;;;;17.08;5.82;;;;;;;-2.52;76.93;100649.28;10366485;28;20096;-64
2021/12/26 21:18:10;;;;;;;8.57;5.00;;;;;;;-2.46;78.79;100639.84;10341248;28;20053;-64
2021/12/26 21:23:32;;;;;;;9.65;5.22;;;;;;;-2.41;78.51;100632.97;10354286;28;20045;-64
2021/12/26 21:28:55;;;;;;;11.57;5.75;;;;;;;-2.34;79.38;100624.38;10398594;28;20471;-64
2021/12/26 21:34:17;;;;;;;11.80;5.40;;;;;;;-2.37;78.66;100621.84;10344997;28;20042;-64
2021/12/26 21:39:40;;;;;;;11.60;6.15;;;;;;;-2.37;80.23;100618.44;10377113;28;20100;-64
2021/12/26 21:45:05;;;;;;;10.82;5.65;;;;;;;-2.45;80.27;100621.13;10396669;28;20034;-64
2021/12/26 21:50:30;;;;;;;9.82;5.97;;;;;;;-2.44;81.70;100617.69;10424007;28;20061;-63
2021/12/26 21:55:52;;;;;;;10.30;5.43;;;;;;;-2.51;81.40;100616.13;10373640;28;20053;-64
2021/12/26 22:01:14;;;;;;;13.20;6.28;;;;;;;-2.57;81.54;100611.13;10375958;28;20045;-63
2021/12/26 22:06:36;;;;;;;12.20;5.93;;;;;;;-2.53;81.05;100622.97;10375071;28;20059;-63
2021/12/26 22:11:59;;;;;;;12.23;6.15;;;;;;;-2.50;81.25;100620.38;10375288;28;20062;-64
2021/12/26 22:17:21;;;;;;;12.60;5.95;;;;;;;-2.46;81.59;100624.53;10347033;28;20056;-64
2021/12/26 22:22:44;;;;;;;10.57;6.07;;;;;;;-2.43;82.77;100619.38;10359665;28;20056;-64
2021/12/26 22:28:05;;;;;;;10.18;5.68;;;;;;;-2.40;82.11;100613.41;10365934;28;20045;-63
2021/12/26 22:33:27;;;;;;;11.68;5.93;;;;;;;-2.32;82.33;100597.09;10427597;28;20049;-64
2021/12/26 22:38:49;;;;;;;10.88;6.20;;;;;;;-2.24;81.59;100590.16;10407206;28;20045;-64
2021/12/26 22:44:12;;;;;;;13.32;6.68;;;;;;;-2.32;80.80;100580.94;10395888;28;20050;-64
2021/12/26 22:49:37;;;;;;;10.95;6.47;;;;;;;-2.28;81.52;100583.41;10400160;28;20472;-65
2021/12/26 22:54:59;;;;;;;12.23;6.80;;;;;;;-2.20;81.74;100571.38;10416897;28;20647;-65
2021/12/26 23:00:39;;;;;;;13.00;6.43;;;;;;;-2.23;82.94;100570.56;10381511;28;20492;-64
2021/12/26 23:06:03;;;;;;;17.17;6.65;;;;;;;-2.24;82.34;100564.63;10386916;28;20053;-64
2021/12/26 23:11:25;;;;;;;10.20;6.30;;;;;;;-2.13;84.52;100562.72;10373928;28;20054;-64
2021/12/26 23:16:47;;;;;;;14.63;6.80;;;;;;;-2.08;85.56;100560.94;10343695;28;20064;-63
2021/12/26 23:22:09;;;;;;;14.65;7.75;;;;;;;-2.01;86.51;100546.38;10365088;28;20056;-63
2021/12/26 23:27:31;;;;;;;12.45;6.78;;;;;;;-2.04;88.53;100537.06;10398191;28;20061;-63
2021/12/26 23:32:52;;;;;;;15.82;7.00;;;;;;;-2.06;86.92;100536.25;10371302;28;20078;-64
2021/12/26 23:38:14;;;;;;;15.23;7.07;;;;;;;-1.96;88.85;100535.19;10343795;28;20053;-64
2021/12/26 23:43:38;;;;;;;14.25;7.05;;;;;;;-1.94;88.22;100528.34;10357241;28;20168;-64
2021/12/26 23:49:03;;;;;;;14.98;7.05;;;;;;;-1.89;87.63;100531.63;10403245;28;20593;-64
2021/12/26 23:54:24;;;;;;;17.02;7.00;;;;;;;-1.84;86.37;100519.63;10439022;28;20053;-64
2021/12/26 23:59:46;;;;;;;15.77;7.20;;;;;;;-1.79;88.59;100522.94;10368794;28;20053;-64
